Time;durP1;ratioP1;P1;durP2;ratioP2;P2;SDS_P1;SDS_P2;PMS_P1;PMS_P2;Temp;Humidity;BMP_temperature;BMP_pressure;BME280_temperature;BME280_humidity;BME280_pressure;Samples;Min_cycle;Max_cycle;Signal;HPM_P1;HPM_P2
2023/09/05 00:01:23;;;;;;;21.38;9.98;;;;;;;16.60;100.00;101498.16;5113889;28;20468;-79
2023/09/05 00:03:48;;;;;;;22.05;10.15;;;;;;;16.55;100.00;101502.56;5113914;28;20031;-78
2023/09/05 00:06:14;;;;;;;24.90;10.85;;;;;;;16.48;100.00;101491.47;5114010;28;20110;-78
2023/09/05 00:08:39;;;;;;;19.73;10.23;;;;;;;16.49;100.00;101500.91;5114169;28;20372;-78
2023/09/05 00:11:05;;;;;;;22.00;9.48;;;;;;;16.39;100.00;101491.59;5114526;28;20028;-79
2023/09/05 00:13:30;;;;;;;22.13;10.05;;;;;;;16.44;100.00;101501.63;5113819;28;20035;-78
2023/09/05 00:15:57;;;;;;;26.83;10.18;;;;;;;16.41;100.00;101499.75;5114690;28;20028;-77
2023/09/05 00:18:23;;;;;;;18.80;8.63;;;;;;;16.38;100.00;101497.88;5114291;28;20027;-78
2023/09/05 00:20:54;;;;;;;20.85;9.55;;;;;;;16.31;100.00;101501.16;5112791;28;20376;-79
2023/09/05 00:23:20;;;;;;;;;;;;;;;16.29;100.00;101503.78;5114430;28;20034;-78
2023/09/05 00:25:45;;;;;;;20.17;10.40;;;;;;;16.21;100.00;101508.38;5114053;28;19912;-78
2023/09/05 00:28:10;;;;;;;22.85;11.18;;;;;;;16.16;100.00;101500.44;5114164;28;20476;-78
2023/09/05 00:30:36;;;;;;;24.42;11.88;;;;;;;16.11;100.00;101504.84;5112707;28;20058;-78
2023/09/05 00:33:01;;;;;;;25.05;11.93;;;;;;;16.03;100.00;101500.78;5112692;28;20038;-77
2023/09/05 00:35:26;;;;;;;24.40;10.32;;;;;;;15.99;100.00;101503.09;5113778;28;20448;-79
2023/09/05 00:37:54;;;;;;;25.50;11.38;;;;;;;15.96;100.00;101513.53;5113610;28;20098;-77
2023/09/05 00:40:20;;;;;;;28.63;12.23;;;;;;;15.92;100.00;101510.06;5113559;28;20071;-79
2023/09/05 00:42:45;;;;;;;21.90;10.73;;;;;;;15.82;100.00;101491.31;5111887;28;20067;-77
2023/09/05 00:45:11;;;;;;;33.13;11.13;;;;;;;15.85;100.00;101496.09;5113004;28;20055;-79
2023/09/05 00:47:37;;;;;;;25.30;10.80;;;;;;;15.80;100.00;101496.00;5110481;28;20020;-78
2023/09/05 00:50:05;;;;;;;27.35;11.85;;;;;;;15.81;100.00;101500.47;5110175;28;20073;-78
2023/09/05 00:52:31;;;;;;;33.25;11.32;;;;;;;15.78;100.00;101499.38;5110088;28;20110;-77
2023/09/05 00:54:57;;;;;;;28.45;10.40;;;;;;;15.75;100.00;101496.69;5109765;28;20469;-78
2023/09/05 00:57:24;;;;;;;18.35;9.73;;;;;;;15.64;100.00;101492.34;5110108;28;20039;-78
2023/09/05 00:59:49;;;;;;;20.17;9.23;;;;;;;15.60;100.00;101467.91;5108097;28;20032;-78
2023/09/05 01:02:15;;;;;;;21.23;10.05;;;;;;;15.63;100.00;101476.34;5109124;28;20034;-79
2023/09/05 01:04:42;;;;;;;17.02;9.55;;;;;;;15.61;100.00;101483.91;5111275;28;20035;-76
2023/09/05 01:07:08;;;;;;;17.35;10.32;;;;;;;15.58;100.00;101476.22;5109885;28;20045;-76
2023/09/05 01:10:03;;;;;;;21.05;9.68;;;;;;;15.56;100.00;101462.31;5111139;28;20027;-77
2023/09/05 01:12:29;;;;;;;22.27;9.75;;;;;;;15.50;100.00;101472.19;5109095;28;20080;-77
2023/09/05 01:14:54;;;;;;;19.13;9.88;;;;;;;15.51;100.00;101471.69;5109893;28;20024;-78
2023/09/05 01:17:19;;;;;;;18.38;10.35;;;;;;;15.49;100.00;101473.47;5109743;28;20471;-78
2023/09/05 01:19:45;;;;;;;21.35;10.00;;;;;;;15.45;100.00;101475.75;5111159;28;20076;-78
2023/09/05 01:22:17;;;;;;;17.95;10.52;;;;;;;15.43;100.00;101478.34;5111262;28;20024;-78
2023/09/05 01:24:43;;;;;;;;;;;;;;;15.37;100.00;101478.22;5112380;28;20024;-78
2023/09/05 01:27:09;;;;;;;22.23;10.65;;;;;;;15.31;100.00;101482.34;5114879;28;19912;-79
2023/09/05 01:29:35;;;;;;;17.45;9.70;;;;;;;15.27;100.00;101463.16;5114762;28;20023;-78
2023/09/05 01:32:02;;;;;;;20.50;11.10;;;;;;;15.23;100.00;101476.97;5096962;28;20038;-78
2023/09/05 01:34:27;;;;;;;20.05;9.85;;;;;;;15.18;100.00;101471.91;5115669;28;20392;-78
2023/09/05 01:36:53;;;;;;;18.40;10.35;;;;;;;15.08;100.00;101461.78;5116783;28;20028;-78
2023/09/05 01:39:19;;;;;;;18.95;10.45;;;;;;;15.07;100.00;101468.81;5115572;28;20031;-76
2023/09/05 01:41:44;;;;;;;21.45;10.40;;;;;;;15.05;100.00;101468.53;5116627;28;20044;-78
2023/09/05 01:44:10;;;;;;;23.63;10.23;;;;;;;15.05;100.00;101482.13;5115485;28;20027;-79
2023/09/05 01:46:36;;;;;;;20.52;10.88;;;;;;;14.97;100.00;101481.72;5115199;28;20027;-78
2023/09/05 01:49:01;;;;;;;19.08;10.35;;;;;;;14.94;100.00;101494.22;5116699;28;20019;-77
2023/09/05 01:51:27;;;;;;;19.95;11.43;;;;;;;14.84;100.00;101487.75;5116675;28;20032;-79
2023/09/05 01:53:52;;;;;;;17.27;10.85;;;;;;;14.90;100.00;101493.63;5116572;28;20084;-77
2023/09/05 01:56:18;;;;;;;19.35;11.02;;;;;;;14.90;100.00;101502.25;5116474;28;20023;-78
2023/09/05 01:58:43;;;;;;;16.27;10.63;;;;;;;14.91;100.00;101508.81;5116605;28;20469;-76
2023/09/05 02:01:08;;;;;;;24.83;11.05;;;;;;;14.89;100.00;101500.66;5116238;28;20032;-77
2023/09/05 02:03:34;;;;;;;20.35;10.60;;;;;;;14.87;100.00;101500.38;5116445;28;20468;-78
2023/09/05 02:05:59;;;;;;;26.98;11.77;;;;;;;14.86;100.00;101493.03;5114871;28;20445;-77
2023/09/05 02:08:25;;;;;;;18.77;10.65;;;;;;;14.84;100.00;101496.41;5116058;28;20027;-78
2023/09/05 02:10:50;;;;;;;19.55;12.05;;;;;;;14.81;100.00;101493.72;5116215;28;20027;-78
2023/09/05 02:13:17;;;;;;;17.38;11.55;;;;;;;14.77;100.00;101493.88;5116026;28;20032;-78
2023/09/05 02:15:43;;;;;;;19.25;12.48;;;;;;;14.76;100.00;101489.44;5114736;28;20433;-79
2023/09/05 02:18:10;;;;;;;21.40;10.93;;;;;;;14.78;100.00;101491.81;5116262;27;20107;-78
2023/09/05 02:20:39;;;;;;;22.55;11.98;;;;;;;14.68;100.00;101493.19;5116255;27;20099;-79
2023/09/05 02:23:05;;;;;;;20.50;13.50;;;;;;;14.74;100.00;101502.72;5115946;28;20050;-78
2023/09/05 02:25:31;;;;;;;20.00;12.25;;;;;;;14.74;100.00;101497.75;5115780;28;20535;-78
2023/09/05 02:27:56;;;;;;;23.55;13.73;;;;;;;14.74;100.00;101497.75;5116167;28;20034;-78
2023/09/05 02:30:22;;;;;;;19.80;13.50;;;;;;;14.70;100.00;101491.41;5115626;28;20062;-77
2023/09/05 02:32:51;;;;;;;24.13;14.63;;;;;;;14.77;100.00;101499.66;5114362;28;20029;-78
2023/09/05 02:35:20;;;;;;;21.50;13.73;;;;;;;14.77;100.00;101508.28;5115056;28;20031;-78
2023/09/05 02:37:45;;;;;;;20.60;14.07;;;;;;;14.69;100.00;101494.78;5115193;28;20403;-78
2023/09/05 02:40:13;;;;;;;18.48;13.55;;;;;;;14.75;100.00;101502.25;5115362;28;20535;-78
2023/09/05 02:42:38;;;;;;;20.70;14.57;;;;;;;14.74;100.00;101503.53;5115262;28;20024;-78
2023/09/05 02:45:04;;;;;;;23.08;14.38;;;;;;;14.74;100.00;101502.72;5115373;28;20152;-77
2023/09/05 02:47:29;;;;;;;19.05;12.27;;;;;;;14.70;100.00;101500.03;5115526;28;20384;-78
2023/09/05 02:49:55;;;;;;;22.95;13.18;;;;;;;14.69;100.00;101500.53;5115391;28;20400;-78
2023/09/05 02:52:21;;;;;;;22.00;12.85;;;;;;;14.62;100.00;101495.16;5114341;28;20021;-77
2023/09/05 02:54:46;;;;;;;19.75;11.88;;;;;;;14.57;100.00;101487.19;5115172;28;20057;-78
2023/09/05 02:57:12;;;;;;;22.38;12.73;;;;;;;14.54;100.00;101488.16;5115181;28;20024;-77
2023/09/05 02:59:37;;;;;;;22.58;11.70;;;;;;;14.50;100.00;101478.94;5115204;28;20012;-77
2023/09/05 03:02:03;;;;;;;17.75;10.70;;;;;;;14.50;100.00;101481.81;5115287;28;20370;-77
2023/09/05 03:04:32;;;;;;;22.20;12.10;;;;;;;14.46;100.00;101482.00;5113808;28;20035;-78
2023/09/05 03:06:59;;;;;;;22.45;11.48;;;;;;;14.42;100.00;101482.19;5113597;28;20160;-76
2023/09/05 03:09:25;;;;;;;21.77;12.60;;;;;;;14.42;100.00;101485.06;5114003;28;20066;-76
2023/09/05 03:11:50;;;;;;;24.83;12.93;;;;;;;14.39;100.00;101488.91;5115084;28;20393;-77
2023/09/05 03:14:16;;;;;;;16.98;12.35;;;;;;;14.37;100.00;101494.38;5115039;28;20027;-78
2023/09/05 03:16:41;;;;;;;19.48;13.05;;;;;;;14.35;100.00;101496.94;5114775;28;20468;-76
2023/09/05 03:19:06;;;;;;;23.17;13.32;;;;;;;14.33;100.00;101493.75;5113586;28;20031;-77
2023/09/05 03:21:32;;;;;;;20.63;13.52;;;;;;;14.32;100.00;101500.81;5116298;28;20468;-76
2023/09/05 03:23:59;;;;;;;22.20;14.27;;;;;;;14.29;100.00;101498.09;5117861;28;20031;-77
2023/09/05 03:26:24;;;;;;;21.42;13.57;;;;;;;14.05;100.00;101466.47;5116432;28;20437;-77
2023/09/05 03:28:50;;;;;;;20.08;14.30;;;;;;;14.26;100.00;101504.84;5115711;28;20478;-78
2023/09/05 03:31:15;;;;;;;19.92;12.93;;;;;;;14.25;100.00;101506.09;5116336;28;20024;-79
2023/09/05 03:33:41;;;;;;;25.05;15.23;;;;;;;14.23;100.00;101502.94;5114335;28;20072;-78
2023/09/05 03:36:08;;;;;;;23.95;14.68;;;;;;;14.21;100.00;101508.38;5113868;28;20020;-76
2023/09/05 03:38:34;;;;;;;22.67;14.07;;;;;;;14.21;100.00;101506.31;5114645;28;20027;-78
2023/09/05 03:41:00;;;;;;;23.73;14.80;;;;;;;14.18;100.00;101492.88;5114511;28;20039;-77
2023/09/05 03:43:25;;;;;;;17.05;13.43;;;;;;;14.22;100.00;101507.09;5113361;28;20038;-77
2023/09/05 03:45:51;;;;;;;21.88;14.00;;;;;;;14.21;100.00;101512.06;5114424;28;20027;-77
2023/09/05 03:48:16;;;;;;;25.48;14.75;;;;;;;14.20;100.00;101515.41;5114835;28;20494;-77
2023/09/05 03:50:41;;;;;;;21.65;14.52;;;;;;;14.18;100.00;101515.13;5114518;28;20507;-77
2023/09/05 03:53:07;;;;;;;25.92;14.32;;;;;;;14.17;100.00;101513.53;5114295;28;20015;-76
2023/09/05 03:55:34;;;;;;;22.75;14.18;;;;;;;14.15;100.00;101513.19;5113000;28;20475;-78
2023/09/05 03:58:00;;;;;;;19.75;13.07;;;;;;;14.13;100.00;101507.16;5114383;28;20019;-77
2023/09/05 04:00:26;;;;;;;21.30;13.32;;;;;;;14.16;100.00;101511.94;5114208;28;20528;-77
2023/09/05 04:02:51;;;;;;;17.63;12.65;;;;;;;14.14;100.00;101517.34;5112854;28;20102;-78
2023/09/05 04:05:16;;;;;;;18.48;13.02;;;;;;;14.10;100.00;101508.13;5112956;28;20058;-79
2023/09/05 04:07:42;;;;;;;21.02;12.63;;;;;;;14.10;100.00;101520.41;5113927;28;20415;-79
2023/09/05 04:10:07;;;;;;;17.10;12.18;;;;;;;14.06;100.00;101525.56;5114069;28;20027;-78
2023/09/05 04:12:33;;;;;;;18.52;13.18;;;;;;;13.99;100.00;101520.16;5113657;28;20393;-77
2023/09/05 04:14:58;;;;;;;21.92;13.82;;;;;;;13.95;100.00;101526.09;5094139;28;20349;-76
2023/09/05 04:17:23;;;;;;;21.38;12.82;;;;;;;13.90;100.00;101520.22;5110508;28;20378;-75
2023/09/05 04:19:54;;;;;;;19.38;12.77;;;;;;;13.90;100.00;101512.38;5112341;28;20494;-76
2023/09/05 04:22:21;;;;;;;19.25;12.48;;;;;;;13.89;100.00;101521.47;5112587;28;20027;-78
2023/09/05 04:24:58;;;;;;;22.30;13.07;;;;;;;13.86;100.00;101514.66;5112753;28;20114;-77
2023/09/05 04:27:24;;;;;;;24.13;13.15;;;;;;;13.85;100.00;101515.13;5113549;28;20072;-78
2023/09/05 04:29:51;;;;;;;25.85;13.18;;;;;;;13.81;100.00;101505.88;5114324;28;20024;-81
2023/09/05 04:32:28;;;;;;;22.67;13.77;;;;;;;13.87;100.00;101507.63;5095973;28;20020;-77
2023/09/05 04:35:02;;;;;;;18.60;11.48;;;;;;;13.92;100.00;101503.28;5112973;28;20032;-76
2023/09/05 04:37:28;;;;;;;18.90;11.40;;;;;;;13.97;100.00;101511.25;5112695;28;20020;-77
2023/09/05 04:39:55;;;;;;;22.35;13.38;;;;;;;13.97;100.00;101509.16;5095540;28;20105;-77
2023/09/05 04:42:24;;;;;;;19.23;13.27;;;;;;;14.06;100.00;101516.13;5113896;28;20038;-76
2023/09/05 04:44:57;;;;;;;21.48;13.25;;;;;;;14.13;100.00;101512.91;5112787;28;20051;-78
2023/09/05 04:47:26;;;;;;;24.38;13.52;;;;;;;14.19;100.00;101508.06;5113584;28;20070;-75
2023/09/05 04:49:53;;;;;;;19.20;12.57;;;;;;;14.19;100.00;101500.22;5113708;28;20051;-76
2023/09/05 04:52:21;;;;;;;19.88;12.85;;;;;;;14.21;100.00;101514.94;5095544;28;20055;-76
2023/09/05 04:54:48;;;;;;;22.50;12.75;;;;;;;14.19;100.00;101514.59;5112827;28;20035;-77
2023/09/05 04:57:16;;;;;;;17.17;12.82;;;;;;;14.22;100.00;101512.84;5078325;28;20097;-73
2023/09/05 04:59:49;;;;;;;20.23;12.45;;;;;;;14.24;100.00;101513.94;5114156;28;20056;-75
2023/09/05 05:02:17;;;;;;;18.35;12.90;;;;;;;14.21;100.00;101517.00;5116167;28;20114;-73
2023/09/05 05:04:43;;;;;;;20.25;13.18;;;;;;;14.30;100.00;101517.75;5117617;28;20039;-78
2023/09/05 05:07:10;;;;;;;18.77;11.90;;;;;;;14.35;100.00;101510.50;5116406;28;20028;-77
2023/09/05 05:09:42;;;;;;;22.73;13.82;;;;;;;14.37;100.00;101511.63;5115987;28;20023;-76
2023/09/05 05:12:09;;;;;;;17.05;12.40;;;;;;;14.48;100.00;101522.56;5117279;28;20020;-76
2023/09/05 05:14:35;;;;;;;21.60;12.90;;;;;;;14.54;100.00;101523.47;5116031;28;20031;-75
2023/09/05 05:17:01;;;;;;;18.70;12.43;;;;;;;14.61;100.00;101520.25;5116869;28;20400;-74
2023/09/05 05:19:35;;;;;;;18.65;12.07;;;;;;;14.70;100.00;101516.50;5116699;28;20024;-73
2023/09/05 05:22:00;;;;;;;20.02;12.40;;;;;;;14.79;100.00;101522.19;5115470;28;20078;-74
2023/09/05 05:24:25;;;;;;;19.45;11.30;;;;;;;14.78;100.00;101509.06;5115784;27;20424;-75
2023/09/05 05:26:51;;;;;;;19.45;11.60;;;;;;;14.84;100.00;101507.09;5116843;28;20028;-75
2023/09/05 05:29:16;;;;;;;25.80;12.13;;;;;;;14.91;100.00;101521.13;5116734;28;20031;-76
2023/09/05 05:31:42;;;;;;;18.33;12.70;;;;;;;14.99;100.00;101516.56;5116813;28;20484;-75
2023/09/05 05:34:07;;;;;;;18.13;11.68;;;;;;;15.12;100.00;101517.06;5116998;28;20063;-73
2023/09/05 05:36:33;;;;;;;17.23;9.43;;;;;;;15.26;100.00;101524.94;5116775;28;20504;-74
2023/09/05 05:38:59;;;;;;;16.10;10.80;;;;;;;15.41;100.00;101512.63;5116608;28;20169;-76
2023/09/05 05:41:26;;;;;;;19.20;11.50;;;;;;;15.37;100.00;101500.47;5115266;28;20040;-76
2023/09/05 05:43:52;;;;;;;16.05;11.23;;;;;;;15.50;100.00;101521.94;5116189;27;20052;-76
2023/09/05 05:46:18;;;;;;;19.88;12.40;;;;;;;15.54;100.00;101533.25;5114336;28;20036;-76
2023/09/05 05:48:44;;;;;;;20.98;12.35;;;;;;;15.56;100.00;101527.81;5114323;28;20036;-74
2023/09/05 05:51:10;;;;;;;21.30;12.85;;;;;;;15.59;100.00;101532.59;5113109;28;20125;-76
2023/09/05 05:53:35;;;;;;;17.38;12.80;;;;;;;15.58;100.00;101528.09;5095952;28;20119;-75
2023/09/05 05:56:02;;;;;;;17.70;14.35;;;;;;;15.64;100.00;101529.81;5113008;28;20349;-75
2023/09/05 05:58:28;;;;;;;17.98;13.75;;;;;;;15.75;100.00;101534.97;5114058;28;20036;-75
2023/09/05 06:00:53;;;;;;;21.27;14.40;;;;;;;15.86;100.00;101534.34;5112664;28;20038;-75
2023/09/05 06:03:22;;;;;;;22.50;14.15;;;;;;;15.94;100.00;101529.75;5113958;28;20031;-76
2023/09/05 06:05:48;;;;;;;17.92;12.48;;;;;;;15.98;100.00;101525.38;5112673;28;20034;-74
2023/09/05 06:08:14;;;;;;;23.17;14.13;;;;;;;16.13;100.00;101531.88;5115440;28;20088;-75
2023/09/05 06:10:39;;;;;;;16.65;12.00;;;;;;;16.27;100.00;101520.78;5116186;28;20357;-76
2023/09/05 06:13:05;;;;;;;18.73;13.13;;;;;;;16.36;100.00;101517.75;5097653;28;20120;-75
2023/09/05 06:15:31;;;;;;;19.13;12.07;;;;;;;16.40;100.00;101513.38;5114967;28;20069;-76
2023/09/05 06:17:57;;;;;;;19.63;12.73;;;;;;;16.48;100.00;101508.75;5114702;28;20106;-75
2023/09/05 06:20:22;;;;;;;15.52;10.07;;;;;;;16.69;100.00;101515.38;5097638;28;20578;-74
2023/09/05 06:22:48;;;;;;;11.55;8.02;;;;;;;16.92;100.00;101514.31;5114588;28;20384;-75
2023/09/05 06:25:13;;;;;;;11.63;7.60;;;;;;;17.67;100.00;101524.78;5115845;28;20431;-75
2023/09/05 06:27:43;;;;;;;10.43;6.68;;;;;;;18.85;100.00;101488.63;5115764;28;20024;-75
2023/09/05 06:30:10;;;;;;;10.95;6.70;;;;;;;20.27;100.00;101475.97;5114080;28;20027;-77
2023/09/05 06:32:35;;;;;;;11.10;5.93;;;;;;;21.61;100.00;101478.91;5114575;28;20410;-77
2023/09/05 06:35:00;;;;;;;9.35;6.15;;;;;;;22.92;100.00;101473.47;5115710;28;20020;-77
2023/09/05 06:37:30;;;;;;;8.50;6.30;;;;;;;24.14;100.00;101467.72;5115458;28;20368;-75
2023/09/05 06:39:56;;;;;;;15.38;6.53;;;;;;;25.29;100.00;101462.81;5115428;28;20048;-76
2023/09/05 06:42:21;;;;;;;6.03;5.30;;;;;;;26.19;100.00;101464.22;5115119;28;20026;-77
2023/09/05 06:44:48;;;;;;;11.88;6.78;;;;;;;26.80;100.00;101446.97;5116215;28;20026;-77
2023/09/05 06:47:13;;;;;;;8.65;5.38;;;;;;;27.48;100.00;101444.22;5116057;28;20384;-77
2023/09/05 06:49:39;;;;;;;8.32;6.10;;;;;;;27.92;100.00;101448.56;5116505;28;20020;-77
2023/09/05 06:52:05;;;;;;;11.45;6.45;;;;;;;28.22;100.00;101452.81;5113956;28;20479;-78
2023/09/05 06:54:31;;;;;;;8.60;6.20;;;;;;;28.83;100.00;101454.25;5114993;27;20051;-78
2023/09/05 06:56:56;;;;;;;9.35;5.80;;;;;;;29.51;100.00;101443.44;5114823;28;20020;-79
2023/09/05 06:59:22;;;;;;;10.05;5.68;;;;;;;30.00;100.00;101449.31;5115076;28;20043;-77
2023/09/05 07:01:48;;;;;;;7.70;5.60;;;;;;;30.49;100.00;101441.75;5115230;28;20016;-79
2023/09/05 07:04:14;;;;;;;7.53;5.07;;;;;;;30.93;100.00;101447.72;5113761;28;20036;-82
2023/09/05 07:06:40;;;;;;;11.13;5.45;;;;;;;30.98;89.13;101449.59;5115305;28;20483;-82
2023/09/05 07:09:08;;;;;;;10.40;5.50;;;;;;;30.89;92.92;101454.06;5115263;28;20047;-75
2023/09/05 07:11:34;;;;;;;7.95;5.20;;;;;;;31.28;90.86;101436.59;5113833;28;20028;-75
2023/09/05 07:14:00;;;;;;;12.55;5.80;;;;;;;31.76;91.69;101446.47;5115070;28;20026;-74
2023/09/05 07:16:25;;;;;;;8.43;5.38;;;;;;;32.23;89.32;101445.06;5113545;28;20020;-77
2023/09/05 07:18:51;;;;;;;7.40;4.95;;;;;;;32.53;83.57;101442.91;5113437;28;20036;-73
2023/09/05 07:21:17;;;;;;;9.73;5.07;;;;;;;32.66;76.41;101454.28;5114724;28;20459;-74
2023/09/05 07:23:42;;;;;;;10.68;5.35;;;;;;;32.50;73.83;101444.91;5114338;28;20365;-73
2023/09/05 07:26:08;;;;;;;5.25;4.75;;;;;;;32.71;79.78;101443.53;5114282;28;20055;-74
2023/09/05 07:28:34;;;;;;;8.95;5.00;;;;;;;32.76;73.30;101452.13;5114640;28;20032;-74
2023/09/05 07:31:00;;;;;;;6.63;4.72;;;;;;;32.38;67.72;101446.97;5114380;28;20449;-76
2023/09/05 07:33:26;;;;;;;11.13;5.40;;;;;;;32.57;78.33;101452.09;5114587;28;20482;-75
2023/09/05 07:35:51;;;;;;;9.75;4.40;;;;;;;32.88;76.72;101453.03;5113097;28;20118;-76
2023/09/05 07:38:20;;;;;;;8.73;5.35;;;;;;;33.20;71.85;101450.97;5114757;28;20062;-75
2023/09/05 07:40:47;;;;;;;8.70;4.72;;;;;;;33.32;69.45;101451.88;5113976;28;20043;-75
2023/09/05 07:43:13;;;;;;;9.00;4.40;;;;;;;33.60;74.17;101450.22;5114233;27;20034;-75
2023/09/05 07:45:38;;;;;;;9.25;4.53;;;;;;;33.96;69.02;101452.09;5114455;28;20024;-74
2023/09/05 07:48:04;;;;;;;7.63;4.25;;;;;;;34.11;64.08;101449.50;5114290;28;20051;-75
2023/09/05 07:50:29;;;;;;;6.43;4.55;;;;;;;34.08;65.52;101444.03;5114824;28;20076;-74
2023/09/05 07:52:55;;;;;;;9.95;5.07;;;;;;;34.23;67.56;101440.69;5114049;28;20016;-77
2023/09/05 07:55:20;;;;;;;7.93;4.60;;;;;;;34.28;62.69;101433.59;5114195;28;20023;-74
2023/09/05 07:57:46;;;;;;;12.30;4.28;;;;;;;34.22;56.46;101442.88;5114092;28;20371;-76
2023/09/05 08:00:15;;;;;;;4.38;3.40;;;;;;;33.83;59.89;101427.47;5114056;28;20059;-76
2023/09/05 08:02:42;;;;;;;5.65;3.60;;;;;;;33.86;59.47;101423.25;5113863;28;20384;-76
2023/09/05 08:05:07;;;;;;;8.18;3.83;;;;;;;33.86;58.88;101429.19;5113780;28;20035;-76
2023/09/05 08:07:33;;;;;;;3.85;3.47;;;;;;;33.90;56.93;101431.66;5113821;28;20023;-75
2023/09/05 08:10:00;;;;;;;3.80;3.30;;;;;;;33.94;57.87;101432.72;5113639;28;20023;-77
2023/09/05 08:12:26;;;;;;;8.93;4.20;;;;;;;33.85;56.78;101429.81;5114043;28;20035;-77
2023/09/05 08:14:51;;;;;;;7.00;3.83;;;;;;;34.01;54.10;101430.97;5114183;28;20360;-75
2023/09/05 08:17:17;;;;;;;4.80;3.58;;;;;;;34.18;54.92;101427.75;5095547;28;20369;-76
2023/09/05 08:19:44;;;;;;;9.27;3.40;;;;;;;34.28;53.45;101425.47;5112435;28;20479;-75
2023/09/05 08:22:12;;;;;;;6.15;3.00;;;;;;;34.27;50.89;101426.09;5114112;28;20028;-76
2023/09/05 08:24:37;;;;;;;7.22;3.15;;;;;;;34.32;51.80;101430.91;5112540;28;20035;-75
2023/09/05 08:27:05;;;;;;;7.30;3.22;;;;;;;34.20;50.67;101427.91;5113583;28;20360;-75
2023/09/05 08:29:31;;;;;;;8.77;3.20;;;;;;;34.11;46.00;101427.94;5113877;28;20043;-75
2023/09/05 08:31:58;;;;;;;7.28;3.35;;;;;;;33.59;46.29;101425.69;5113570;28;20520;-75
2023/09/05 08:34:23;;;;;;;7.80;3.25;;;;;;;33.24;48.29;101413.50;5115424;28;20030;-77
2023/09/05 08:36:49;;;;;;;4.40;3.00;;;;;;;33.25;51.41;101415.06;5116378;28;20102;-77
2023/09/05 08:39:14;;;;;;;7.40;2.78;;;;;;;33.23;48.96;101420.09;5117830;28;20767;-76
2023/09/05 08:41:40;;;;;;;6.93;2.80;;;;;;;33.14;50.12;101424.59;5117718;27;20047;-75
2023/09/05 08:44:05;;;;;;;6.30;2.90;;;;;;;33.01;49.41;101425.88;5116588;28;20530;-74
2023/09/05 08:46:31;;;;;;;6.80;2.97;;;;;;;32.81;51.99;101412.50;5116483;28;20023;-75
2023/09/05 08:48:56;;;;;;;12.90;3.00;;;;;;;32.67;51.28;101400.38;5116441;28;20028;-75
2023/09/05 08:51:32;;;;;;;5.15;2.97;;;;;;;32.52;51.95;101414.69;5117532;28;20072;-74
2023/09/05 08:53:59;;;;;;;5.80;2.70;;;;;;;32.55;51.40;101425.28;5117701;28;20035;-74
2023/09/05 08:56:25;;;;;;;11.75;3.33;;;;;;;32.52;53.22;101414.69;5117469;28;20066;-73
2023/09/05 08:58:51;;;;;;;4.63;2.75;;;;;;;32.41;51.54;101412.34;5117415;28;20051;-75
2023/09/05 09:01:18;;;;;;;8.93;3.03;;;;;;;32.00;49.43;101418.03;5117410;28;20034;-74
2023/09/05 09:03:43;;;;;;;4.22;2.70;;;;;;;31.76;51.62;101407.25;5116235;28;20028;-74
2023/09/05 09:06:09;;;;;;;7.78;3.40;;;;;;;31.62;52.53;101394.28;5116922;28;20031;-75
2023/09/05 09:08:44;;;;;;;6.50;3.35;;;;;;;31.72;51.50;101407.72;5115974;28;20360;-76
2023/09/05 09:11:10;;;;;;;7.57;2.47;;;;;;;31.73;53.11;101402.59;5115780;28;20112;-76
2023/09/05 09:13:38;;;;;;;4.30;2.10;;;;;;;31.38;49.46;101410.84;5117382;28;20023;-75
2023/09/05 09:16:03;;;;;;;4.72;2.35;;;;;;;31.05;53.23;101394.78;5117448;28;20118;-75
2023/09/05 09:18:31;;;;;;;4.88;2.47;;;;;;;30.85;52.47;101382.09;5117117;28;20464;-74
2023/09/05 09:20:59;;;;;;;6.43;3.08;;;;;;;30.84;55.31;101378.34;5117126;28;20046;-75
2023/09/05 09:23:29;;;;;;;6.97;2.67;;;;;;;30.70;51.50;101397.84;5117569;28;20106;-75
2023/09/05 09:25:56;;;;;;;5.28;2.67;;;;;;;30.41;56.05;101385.78;5115495;28;20059;-73
2023/09/05 09:28:28;;;;;;;4.78;2.88;;;;;;;30.21;53.55;101386.22;5116935;28;20473;-75
2023/09/05 09:31:02;;;;;;;4.35;2.63;;;;;;;30.07;56.05;101400.50;5116826;28;20019;-74
2023/09/05 09:33:31;;;;;;;4.85;2.90;;;;;;;29.91;57.19;101381.41;5115758;28;20080;-76
2023/09/05 09:36:00;;;;;;;5.75;2.42;;;;;;;29.97;58.00;101393.75;5098856;28;20442;-74
2023/09/05 09:38:26;;;;;;;4.97;3.03;;;;;;;29.89;59.42;101384.97;5116669;28;20100;-76
2023/09/05 09:40:51;;;;;;;4.80;2.90;;;;;;;29.85;58.34;101387.56;5115803;28;20447;-75
2023/09/05 09:43:17;;;;;;;5.65;3.30;;;;;;;29.82;59.13;101388.78;5115228;28;20423;-75
2023/09/05 09:45:42;;;;;;;6.72;2.88;;;;;;;29.76;58.04;101394.13;5114990;28;20027;-75
2023/09/05 09:48:09;;;;;;;3.85;2.60;;;;;;;29.75;62.52;101385.88;5115571;28;20422;-77
2023/09/05 09:50:36;;;;;;;6.95;2.92;;;;;;;29.59;61.07;101380.13;5115366;28;20036;-75
2023/09/05 09:53:02;;;;;;;6.60;3.10;;;;;;;29.47;62.32;101378.25;5115534;28;20031;-75
2023/09/05 09:55:31;;;;;;;8.63;3.13;;;;;;;29.35;61.64;101369.13;5115178;28;20020;-73
2023/09/05 09:58:01;;;;;;;7.90;3.00;;;;;;;29.16;63.46;101363.00;5115478;28;20051;-76
2023/09/05 10:00:28;;;;;;;7.43;3.03;;;;;;;29.03;68.38;101363.28;5113959;28;20027;-76
2023/09/05 10:02:54;;;;;;;8.85;3.55;;;;;;;28.98;68.56;101364.28;5113866;28;20054;-76
2023/09/05 10:05:23;;;;;;;10.65;2.92;;;;;;;28.91;66.57;101371.78;5115207;28;20124;-74
2023/09/05 10:07:49;;;;;;;8.57;3.33;;;;;;;28.76;67.96;101377.75;5115008;28;20037;-75
2023/09/05 10:10:16;;;;;;;5.55;2.78;;;;;;;28.72;67.53;101384.03;5113779;28;20391;-77
2023/09/05 10:12:44;;;;;;;5.10;2.80;;;;;;;28.45;64.41;101366.09;5114731;28;20028;-76
2023/09/05 10:15:11;;;;;;;5.22;2.92;;;;;;;28.42;68.32;101372.41;5096671;28;20031;-77
2023/09/05 10:17:37;;;;;;;4.95;3.00;;;;;;;28.16;70.10;101372.88;5114862;28;20457;-79
2023/09/05 10:20:04;;;;;;;9.68;3.00;;;;;;;28.06;72.29;101363.09;5114020;28;20049;-77
2023/09/05 10:22:32;;;;;;;8.70;2.80;;;;;;;28.05;69.43;101376.25;5114025;28;20110;-76
2023/09/05 10:25:00;;;;;;;4.72;2.97;;;;;;;27.81;72.81;101351.19;5114951;28;20019;-79
2023/09/05 10:27:25;;;;;;;8.73;3.17;;;;;;;27.76;75.60;101346.28;5096361;28;20365;-80
2023/09/05 10:29:52;;;;;;;5.88;2.85;;;;;;;27.70;71.46;101370.00;5114919;28;20140;-79
2023/09/05 10:32:24;;;;;;;7.32;2.90;;;;;;;27.56;73.59;101366.50;5114633;28;20027;-76
2023/09/05 10:34:50;;;;;;;8.30;3.28;;;;;;;27.47;75.26;101361.22;5115113;28;20023;-75
2023/09/05 10:37:21;;;;;;;3.53;2.92;;;;;;;27.19;76.51;101356.28;5114447;28;20027;-74
2023/09/05 10:39:48;;;;;;;5.22;2.92;;;;;;;27.13;77.85;101363.72;5066156;28;1329129;-78
2023/09/05 10:42:15;;;;;;;4.35;2.88;;;;;;;26.92;78.58;101363.88;5115561;28;20059;-78
2023/09/05 10:44:47;;;;;;;6.32;3.50;;;;;;;26.74;76.85;101356.22;5114284;28;20027;-76
2023/09/05 10:47:27;;;;;;;7.15;3.30;;;;;;;26.68;81.03;101347.56;5113884;28;20140;-75
2023/09/05 10:50:00;;;;;;;5.88;3.20;;;;;;;26.68;82.36;101349.69;5114087;28;20024;-77
2023/09/05 10:52:29;;;;;;;6.50;3.53;;;;;;;26.34;81.96;101327.31;5113358;28;20115;-76
2023/09/05 10:54:56;;;;;;;7.72;3.58;;;;;;;26.26;82.47;101349.97;5113396;28;20545;-77
2023/09/05 10:57:38;;;;;;;5.55;3.53;;;;;;;26.19;86.18;101347.78;5114679;28;20034;-75
2023/09/05 11:00:28;;;;;;;5.57;3.55;;;;;;;26.14;86.94;101351.66;5115212;28;20121;-75
2023/09/05 11:02:56;;;;;;;4.97;3.17;;;;;;;25.94;87.67;101358.34;5114896;28;20031;-77
2023/09/05 11:05:25;;;;;;;4.07;3.20;;;;;;;25.89;88.79;101344.63;5096687;28;20091;-74
2023/09/05 11:07:52;;;;;;;5.78;3.30;;;;;;;25.82;89.74;101340.31;5114828;28;20024;-73
2023/09/05 11:10:28;;;;;;;5.30;3.15;;;;;;;25.79;90.57;101341.47;5115164;27;20015;-74